createdAt,value
2022-10-22T00:05:11.126Z,100278.34
2022-10-22T00:11:15.162Z,100131.28
2022-10-22T00:17:17.220Z,100269.13
2022-10-22T00:23:19.007Z,100265.13
2022-10-22T00:29:21.236Z,100234.25
2022-10-22T00:35:23.152Z,100219.66
2022-10-22T00:41:25.132Z,100164.56
2022-10-22T00:47:31.286Z,100203.53
2022-10-22T00:53:45.998Z,100231.31
2022-10-22T00:59:48.884Z,100192.00
2022-10-22T01:06:03.043Z,100217.38
2022-10-22T01:12:34.936Z,100209.69
2022-10-22T01:19:29.406Z,100193.94
2022-10-22T01:25:42.198Z,100210.84
2022-10-22T01:31:49.839Z,100205.44
2022-10-22T01:37:57.278Z,100144.97
2022-10-22T01:43:59.127Z,100126.75
2022-10-22T01:50:19.360Z,100226.09
2022-10-22T01:56:33.488Z,100208.84
2022-10-22T02:02:44.799Z,100199.50
2022-10-22T02:08:49.055Z,100187.88
2022-10-22T02:14:52.034Z,100180.34
2022-10-22T02:20:54.870Z,100089.81
2022-10-22T02:27:06.828Z,100181.00
2022-10-22T02:33:29.419Z,100184.72
2022-10-22T02:39:32.653Z,100178.03
2022-10-22T02:45:34.900Z,100140.13
2022-10-22T02:51:36.760Z,100171.59
2022-10-22T02:57:38.883Z,100126.84
2022-10-22T03:03:41.050Z,100170.97
2022-10-22T03:09:42.897Z,100166.03
2022-10-22T03:15:53.877Z,100177.63
2022-10-22T03:22:00.192Z,100009.66
2022-10-22T03:28:07.389Z,99985.47
2022-10-22T03:34:09.422Z,100133.09
2022-10-22T03:40:12.412Z,100139.31
2022-10-22T03:46:14.464Z,100128.56
2022-10-22T03:52:16.386Z,100121.06
2022-10-22T04:04:35.346Z,100087.69
2022-10-22T04:10:44.114Z,99960.38
2022-10-22T04:16:46.082Z,99962.22
2022-10-22T04:22:48.038Z,100025.19
2022-10-22T04:28:51.446Z,100109.56
2022-10-22T04:34:53.487Z,100106.38
2022-10-22T04:40:55.589Z,100034.56
2022-10-22T04:46:57.486Z,100025.59
2022-10-22T04:52:59.309Z,100075.03
2022-10-22T04:59:04.769Z,100036.84
2022-10-22T05:05:08.572Z,99935.72
2022-10-22T05:11:15.825Z,100003.56
2022-10-22T05:17:17.616Z,100097.03
2022-10-22T05:23:19.364Z,99960.28
2022-10-22T05:29:21.873Z,100051.94
2022-10-22T05:35:23.702Z,99984.84
2022-10-22T05:41:27.575Z,99968.13
2022-10-22T05:47:35.063Z,100087.56
2022-10-22T05:53:44.220Z,100040.03
2022-10-22T05:59:46.674Z,99957.06
2022-10-22T06:05:48.857Z,100084.88
2022-10-22T06:11:51.336Z,99942.34
2022-10-22T06:18:02.218Z,99948.75
2022-10-22T06:24:04.241Z,100026.88
2022-10-22T06:30:06.608Z,100059.81
2022-10-22T06:36:31.842Z,100085.97
2022-10-22T06:42:33.661Z,100059.09
2022-10-22T06:48:44.665Z,100025.47
2022-10-22T06:54:52.537Z,99974.50
2022-10-22T07:01:14.301Z,100077.81
2022-10-22T07:07:16.209Z,100071.34
2022-10-22T07:13:18.008Z,100089.03
2022-10-22T07:19:19.879Z,100064.78
2022-10-22T07:25:21.644Z,100026.59
2022-10-22T07:31:23.762Z,100068.22
2022-10-22T07:37:25.597Z,100075.28
2022-10-22T07:43:32.474Z,100056.97
2022-10-22T07:49:37.467Z,100023.94
2022-10-22T07:55:39.778Z,99917.13
2022-10-22T08:01:46.427Z,99941.94
2022-10-22T08:07:48.708Z,100037.53
2022-10-22T08:13:50.522Z,100036.13
2022-10-22T08:20:11.222Z,100032.81
2022-10-22T08:26:14.560Z,99952.22
2022-10-22T08:39:15.678Z,99948.06
2022-10-22T08:45:52.443Z,100036.25
2022-10-22T19:49:46.644Z,99860.00
2022-10-22T19:55:51.175Z,99853.41
2022-10-22T20:01:57.998Z,99720.66
2022-10-22T20:08:07.959Z,99722.78
2022-10-22T20:14:13.145Z,99726.38
2022-10-22T20:20:16.457Z,99730.66
2022-10-22T20:26:21.312Z,99728.06
2022-10-22T20:32:25.483Z,99732.81
2022-10-22T20:38:28.178Z,99805.56
2022-10-22T20:44:42.669Z,99709.66
2022-10-22T20:50:44.871Z,99849.34
2022-10-22T20:57:04.490Z,99812.56
2022-10-22T21:03:07.057Z,99817.59
2022-10-22T21:09:11.417Z,99826.94
2022-10-22T21:15:13.241Z,99873.59
2022-10-22T21:21:17.731Z,99860.81
2022-10-22T21:27:19.515Z,99845.53
2022-10-22T21:33:21.757Z,99842.69
2022-10-22T21:39:23.687Z,99846.19
2022-10-22T21:45:25.621Z,99841.22
2022-10-22T21:51:28.584Z,99792.47
2022-10-22T21:57:30.669Z,99814.81
2022-10-22T22:03:32.922Z,99830.03
2022-10-22T22:09:34.997Z,99811.63
2022-10-22T22:15:37.063Z,99709.81
2022-10-22T22:21:40.642Z,99805.56
2022-10-22T22:27:45.379Z,99798.66
2022-10-22T22:33:47.981Z,99727.59
2022-10-22T22:39:50.812Z,99774.06
2022-10-22T22:52:12.068Z,99730.91
2022-10-22T23:04:32.109Z,99676.69
2022-10-22T23:10:34.945Z,99644.72
2022-10-22T23:16:43.536Z,99636.25
2022-10-22T23:22:49.617Z,99618.94
2022-10-22T23:28:57.075Z,99626.75
2022-10-22T23:35:00.899Z,99716.13
2022-10-22T23:54:07.981Z,99722.50
